createdAt,value
2023-05-21T00:01:49.999Z,15.60
2023-05-21T00:04:26.026Z,14.33
2023-05-21T00:07:02.025Z,14.27
2023-05-21T00:09:38.616Z,14.97
2023-05-21T00:12:14.487Z,15.30
2023-05-21T00:14:50.396Z,14.87
2023-05-21T00:17:26.413Z,14.10
2023-05-21T00:20:05.878Z,14.53
2023-05-21T00:22:42.425Z,14.70
2023-05-21T00:25:18.536Z,16.07
2023-05-21T00:27:55.645Z,15.30
2023-05-21T00:30:31.698Z,14.90
2023-05-21T00:33:10.403Z,14.97
2023-05-21T00:35:46.418Z,14.90
2023-05-21T00:38:23.259Z,15.47
2023-05-21T00:41:05.279Z,15.13
2023-05-21T00:43:41.894Z,15.43
2023-05-21T00:46:19.755Z,17.33
2023-05-21T00:48:58.039Z,16.50
2023-05-21T00:51:34.038Z,16.70
2023-05-21T00:54:10.186Z,17.40
2023-05-21T00:56:47.450Z,17.17
2023-05-21T00:59:24.517Z,16.90
2023-05-21T01:02:04.292Z,17.00
2023-05-21T01:04:40.366Z,16.10
2023-05-21T01:07:16.367Z,16.13
2023-05-21T01:09:54.128Z,15.17
2023-05-21T01:12:32.308Z,17.80
2023-05-21T01:15:09.135Z,16.80
2023-05-21T01:17:46.153Z,17.53
2023-05-21T01:20:24.430Z,17.47
2023-05-21T01:23:02.094Z,15.90
2023-05-21T01:25:38.908Z,18.27
2023-05-21T01:28:15.332Z,16.97
2023-05-21T01:30:51.640Z,16.80
2023-05-21T01:33:41.920Z,16.80
2023-05-21T01:36:31.030Z,16.70
2023-05-21T01:39:19.678Z,18.40
2023-05-21T01:41:57.483Z,17.00
2023-05-21T01:44:34.917Z,16.93
2023-05-21T01:47:11.208Z,18.30
2023-05-21T01:49:47.985Z,17.07
2023-05-21T01:52:24.234Z,18.67
2023-05-21T01:55:00.341Z,17.43
2023-05-21T01:57:36.352Z,17.67
2023-05-21T02:00:14.123Z,19.03
2023-05-21T02:02:52.734Z,18.37
2023-05-21T02:05:28.879Z,17.60
2023-05-21T02:08:05.479Z,17.60
2023-05-21T02:10:41.705Z,18.90
2023-05-21T02:13:22.355Z,17.60
2023-05-21T02:16:01.543Z,17.33
2023-05-21T02:18:38.549Z,18.50
2023-05-21T02:21:14.459Z,19.30
2023-05-21T02:23:50.491Z,18.77
2023-05-21T02:26:27.142Z,18.63
2023-05-21T02:29:04.237Z,18.93
2023-05-21T02:31:40.145Z,19.00
2023-05-21T02:34:16.625Z,18.30
2023-05-21T02:36:52.559Z,17.00
2023-05-21T02:39:28.499Z,18.37
2023-05-21T02:42:04.896Z,17.40
2023-05-21T02:44:40.832Z,18.50
2023-05-21T02:47:17.692Z,18.17
2023-05-21T02:49:54.086Z,18.43
2023-05-21T02:52:30.107Z,19.23
2023-05-21T02:55:06.895Z,18.20
2023-05-21T02:57:42.828Z,19.13
2023-05-21T03:00:18.973Z,18.80
2023-05-21T03:02:55.138Z,18.90
2023-05-21T03:05:31.243Z,18.67
2023-05-21T03:08:07.180Z,18.37
2023-05-21T03:10:43.228Z,19.57
2023-05-21T03:13:19.250Z,19.07
2023-05-21T03:15:57.808Z,19.40
2023-05-21T03:18:33.883Z,18.07
2023-05-21T03:21:09.901Z,19.20
2023-05-21T03:23:45.794Z,19.60
2023-05-21T03:26:22.287Z,21.53
2023-05-21T03:28:58.831Z,19.13
2023-05-21T03:31:35.599Z,20.30
2023-05-21T03:34:16.519Z,19.00
2023-05-21T03:36:52.869Z,19.00
2023-05-21T03:39:30.507Z,19.87
2023-05-21T03:42:07.030Z,17.40
2023-05-21T03:44:50.555Z,18.50
2023-05-21T03:47:45.054Z,19.47
2023-05-21T03:50:21.391Z,20.00
2023-05-21T03:52:57.660Z,20.47
2023-05-21T03:55:33.748Z,19.43
2023-05-21T03:58:11.281Z,19.30
2023-05-21T04:00:48.292Z,18.67
2023-05-21T04:03:24.663Z,18.07
2023-05-21T04:06:04.083Z,18.60
2023-05-21T04:08:40.988Z,18.23
2023-05-21T04:11:18.216Z,18.53
2023-05-21T04:13:54.178Z,18.90
2023-05-21T04:16:30.516Z,18.33
2023-05-21T04:19:07.011Z,18.00
2023-05-21T04:21:44.978Z,20.20
2023-05-21T04:24:22.849Z,18.00
2023-05-21T04:27:25.554Z,18.67
2023-05-21T04:30:04.376Z,20.80
2023-05-21T04:32:45.762Z,19.03
2023-05-21T04:35:23.460Z,18.63
2023-05-21T04:40:39.033Z,18.00
2023-05-21T04:43:17.146Z,18.90
2023-05-21T04:45:57.149Z,19.33
2023-05-21T04:48:36.614Z,18.50
2023-05-21T04:51:16.329Z,19.27
2023-05-21T04:53:53.901Z,18.13
2023-05-21T04:56:30.081Z,18.50
2023-05-21T04:59:06.524Z,20.17
2023-05-21T05:01:43.924Z,19.30
2023-05-21T05:04:20.036Z,18.90
2023-05-21T05:06:56.077Z,17.00
2023-05-21T05:09:32.157Z,17.70
2023-05-21T05:12:08.242Z,17.67
2023-05-21T05:14:44.203Z,20.93
2023-05-21T05:17:20.159Z,18.27
2023-05-21T05:19:56.245Z,18.00
2023-05-21T05:22:32.279Z,17.50
2023-05-21T05:25:08.693Z,18.00
2023-05-21T05:27:44.974Z,18.30
2023-05-21T05:30:21.628Z,16.27
2023-05-21T05:32:57.730Z,18.00
2023-05-21T05:35:34.141Z,18.40
2023-05-21T05:38:11.031Z,18.03
2023-05-21T05:40:47.458Z,17.90
2023-05-21T05:43:26.407Z,18.70
2023-05-21T05:46:03.551Z,16.70
2023-05-21T05:48:39.695Z,16.57
2023-05-21T05:51:17.127Z,16.63
2023-05-21T05:53:53.073Z,18.47
2023-05-21T05:56:29.189Z,17.70
2023-05-21T05:59:05.166Z,17.00
2023-05-21T06:01:44.308Z,19.03
2023-05-21T06:04:20.673Z,18.40
2023-05-21T06:06:57.883Z,17.70
2023-05-21T06:09:33.838Z,17.10
2023-05-21T06:12:12.273Z,17.87
2023-05-21T06:14:50.979Z,18.23
2023-05-21T06:17:27.299Z,17.70
2023-05-21T06:20:05.253Z,17.63
2023-05-21T06:22:41.269Z,18.77
2023-05-21T06:25:18.574Z,17.90
2023-05-21T06:27:54.608Z,18.10
2023-05-21T06:30:34.676Z,17.70
2023-05-21T06:33:11.594Z,16.53
2023-05-21T06:35:47.821Z,18.00
2023-05-21T06:38:23.876Z,16.57
2023-05-21T06:41:00.538Z,17.53
2023-05-21T06:43:51.471Z,17.77
2023-05-21T06:46:52.890Z,18.27
2023-05-21T06:49:31.027Z,17.10
2023-05-21T06:52:07.122Z,18.03
2023-05-21T06:54:43.398Z,17.60
2023-05-21T06:57:20.439Z,17.07
2023-05-21T06:59:56.520Z,17.50
2023-05-21T07:02:32.793Z,18.57
2023-05-21T07:05:09.421Z,16.27
2023-05-21T07:07:46.282Z,15.57
2023-05-21T07:10:22.648Z,14.57
2023-05-21T07:12:58.698Z,15.40
2023-05-21T07:15:36.326Z,15.80
2023-05-21T07:18:13.205Z,14.77
2023-05-21T07:20:49.340Z,15.17
2023-05-21T07:23:25.742Z,15.10
2023-05-21T07:26:01.753Z,16.27
2023-05-21T07:28:38.769Z,13.50
2023-05-21T07:31:14.870Z,13.57
2023-05-21T07:33:55.795Z,13.50
2023-05-21T07:36:38.993Z,13.70
2023-05-21T07:39:15.940Z,14.93
2023-05-21T07:41:52.450Z,14.40
2023-05-21T07:44:29.639Z,15.80
2023-05-21T07:47:05.918Z,12.70
2023-05-21T07:49:43.136Z,12.87
2023-05-21T07:52:19.496Z,14.13
2023-05-21T07:54:55.525Z,12.87
2023-05-21T07:57:32.275Z,14.53
2023-05-21T08:00:16.443Z,13.00
2023-05-21T08:02:57.259Z,12.27
2023-05-21T08:05:35.003Z,12.20
2023-05-21T08:08:12.842Z,11.20
2023-05-21T08:10:49.467Z,11.93
2023-05-21T08:13:26.274Z,10.67
2023-05-21T08:16:02.526Z,10.67
2023-05-21T08:18:38.614Z,11.43
2023-05-21T08:21:14.726Z,11.37
2023-05-21T08:23:53.226Z,11.03
2023-05-21T08:26:29.620Z,10.23
2023-05-21T08:29:05.857Z,9.43
2023-05-21T08:31:41.970Z,10.73
2023-05-21T08:34:18.640Z,10.93
2023-05-21T08:37:02.502Z,10.27
2023-05-21T08:40:09.181Z,10.93
2023-05-21T08:42:49.843Z,10.27
2023-05-21T08:45:38.825Z,9.80
2023-05-21T08:48:16.970Z,10.23
2023-05-21T08:50:54.743Z,10.80
2023-05-21T08:53:36.142Z,10.23
2023-05-21T08:56:17.510Z,9.37
2023-05-21T08:59:05.610Z,10.20
2023-05-21T09:01:46.920Z,10.77
2023-05-21T09:04:32.286Z,10.50
2023-05-21T09:07:11.086Z,10.33
2023-05-21T09:10:14.117Z,11.10
2023-05-21T09:12:51.388Z,11.70
2023-05-21T09:15:27.507Z,11.03
2023-05-21T09:18:03.619Z,11.33
2023-05-21T09:20:48.674Z,10.43
2023-05-21T09:23:25.072Z,10.87
2023-05-21T09:26:00.979Z,10.80
2023-05-21T09:28:41.159Z,10.67
2023-05-21T09:31:17.348Z,10.27
2023-05-21T09:33:53.557Z,10.57
2023-05-21T09:36:30.392Z,10.10
2023-05-21T09:39:06.330Z,9.20
2023-05-21T09:41:42.754Z,9.87
2023-05-21T09:44:18.683Z,10.60
2023-05-21T09:47:00.972Z,10.00
2023-05-21T09:49:37.827Z,11.07
2023-05-21T09:52:14.685Z,9.00
2023-05-21T09:54:53.143Z,9.23
2023-05-21T09:57:29.827Z,8.40
2023-05-21T10:00:08.944Z,8.47
2023-05-21T10:02:54.547Z,10.33
2023-05-21T10:05:31.162Z,9.53
2023-05-21T10:08:09.446Z,8.00
2023-05-21T10:10:48.498Z,8.50
2023-05-21T10:13:24.773Z,8.73
2023-05-21T10:16:04.893Z,8.60
2023-05-21T10:18:42.829Z,8.80
2023-05-21T10:21:18.912Z,8.60
2023-05-21T10:23:58.434Z,8.90
2023-05-21T10:26:35.834Z,9.13
2023-05-21T10:29:15.359Z,9.53
2023-05-21T10:31:53.022Z,8.40
2023-05-21T10:34:32.005Z,9.33
2023-05-21T10:37:09.946Z,8.90
2023-05-21T10:39:45.942Z,7.90
2023-05-21T10:42:31.211Z,7.33
2023-05-21T10:45:48.473Z,8.30
2023-05-21T10:49:07.675Z,8.13
2023-05-21T10:52:12.023Z,9.20
2023-05-21T10:55:33.134Z,8.40
2023-05-21T10:58:30.002Z,8.17
2023-05-21T11:01:07.276Z,7.60
2023-05-21T11:03:43.689Z,7.80
2023-05-21T11:06:25.369Z,8.40
2023-05-21T11:09:16.287Z,7.70
2023-05-21T11:11:54.780Z,7.23
2023-05-21T11:14:36.726Z,7.90
2023-05-21T11:17:16.582Z,7.70
2023-05-21T11:19:55.052Z,7.03
2023-05-21T11:22:35.675Z,8.20
2023-05-21T11:25:12.571Z,7.50
2023-05-21T11:27:49.376Z,7.30
2023-05-21T11:30:25.657Z,8.20
2023-05-21T11:33:16.460Z,7.30
2023-05-21T11:35:55.050Z,7.23
2023-05-21T11:38:31.660Z,8.17
2023-05-21T11:41:09.591Z,7.23
2023-05-21T11:43:45.634Z,7.10
2023-05-21T11:46:21.561Z,7.27
2023-05-21T11:48:58.424Z,8.30
2023-05-21T11:51:34.503Z,7.17
2023-05-21T11:54:10.780Z,7.33
2023-05-21T11:56:48.272Z,6.90
2023-05-21T11:59:24.275Z,7.17
2023-05-21T12:02:01.115Z,6.90
2023-05-21T12:04:37.048Z,7.33
2023-05-21T12:07:17.628Z,6.53
2023-05-21T12:09:53.613Z,7.07
2023-05-21T12:12:38.516Z,7.00
2023-05-21T12:15:18.910Z,6.20
2023-05-21T12:17:55.410Z,7.00
2023-05-21T12:20:31.513Z,6.33
2023-05-21T12:23:07.401Z,6.57
2023-05-21T12:25:43.389Z,7.27
2023-05-21T12:28:22.167Z,6.87
2023-05-21T12:30:58.055Z,5.80
2023-05-21T12:33:37.080Z,7.07
2023-05-21T12:36:29.575Z,6.40
2023-05-21T12:39:10.578Z,6.73
2023-05-21T12:41:47.340Z,6.27
2023-05-21T12:44:23.450Z,6.30
2023-05-21T12:46:59.780Z,5.97
2023-05-21T12:49:41.683Z,6.27
2023-05-21T12:52:22.515Z,6.83
2023-05-21T12:55:02.495Z,7.27
2023-05-21T12:57:38.994Z,6.97
2023-05-21T13:00:23.677Z,6.23
2023-05-21T13:03:04.816Z,6.03
2023-05-21T13:05:41.901Z,5.90
2023-05-21T13:08:17.936Z,6.20
2023-05-21T13:10:54.362Z,6.73
2023-05-21T13:13:30.992Z,6.43
2023-05-21T13:16:08.294Z,6.07
2023-05-21T13:18:44.405Z,5.40
2023-05-21T13:21:20.727Z,6.10
2023-05-21T13:23:56.739Z,5.97
2023-05-21T13:26:33.074Z,7.57
2023-05-21T13:29:09.943Z,6.60
2023-05-21T13:31:46.309Z,6.30
2023-05-21T13:34:22.418Z,5.90
2023-05-21T13:36:58.788Z,5.33
2023-05-21T13:39:34.844Z,5.33
2023-05-21T13:42:10.877Z,5.20
2023-05-21T13:44:50.842Z,4.77
2023-05-21T13:47:27.428Z,5.90
2023-05-21T13:50:04.899Z,6.30
2023-05-21T13:52:40.938Z,5.73
2023-05-21T13:55:17.434Z,6.40
2023-05-21T13:57:53.447Z,7.17
2023-05-21T14:00:30.826Z,6.00
2023-05-21T14:03:07.721Z,5.63
2023-05-21T14:05:44.195Z,5.60
2023-05-21T14:08:21.352Z,4.33
2023-05-21T14:10:57.590Z,4.90
2023-05-21T14:13:33.649Z,5.00
2023-05-21T14:16:09.607Z,5.73
2023-05-21T14:18:47.330Z,6.13
2023-05-21T14:21:24.803Z,5.00
2023-05-21T14:24:01.014Z,5.47
2023-05-21T14:26:46.135Z,5.47
2023-05-21T14:29:22.117Z,4.47
2023-05-21T14:31:58.141Z,4.30
2023-05-21T14:34:34.185Z,5.30
2023-05-21T14:37:10.312Z,4.97
2023-05-21T14:39:46.542Z,3.80
2023-05-21T14:42:22.838Z,4.80
2023-05-21T14:44:59.060Z,4.17
2023-05-21T14:47:35.326Z,3.90
2023-05-21T14:50:11.792Z,4.30
2023-05-21T14:52:47.868Z,4.83
2023-05-21T14:55:24.080Z,4.33
2023-05-21T14:58:03.239Z,4.80
2023-05-21T15:00:41.866Z,4.80
2023-05-21T15:03:21.003Z,5.57
2023-05-21T15:05:58.687Z,5.40
2023-05-21T15:08:34.987Z,5.27
2023-05-21T15:11:12.877Z,6.97
2023-05-21T15:13:49.338Z,6.60
2023-05-21T15:16:25.649Z,5.73
2023-05-21T15:19:12.383Z,6.83
2023-05-21T15:21:55.942Z,6.20
2023-05-21T15:24:33.202Z,5.63
2023-05-21T15:27:09.323Z,5.60
2023-05-21T15:29:48.011Z,6.27
2023-05-21T15:32:24.289Z,5.83
2023-05-21T15:35:00.564Z,6.00
2023-05-21T15:37:36.758Z,5.77
2023-05-21T15:40:13.417Z,6.03
2023-05-21T15:42:49.660Z,5.87
2023-05-21T15:45:25.733Z,6.50
2023-05-21T15:48:02.004Z,6.73
2023-05-21T15:50:38.246Z,6.20
2023-05-21T15:53:14.293Z,6.53
2023-05-21T15:55:51.893Z,6.20
2023-05-21T15:58:28.062Z,6.97
2023-05-21T16:01:06.739Z,6.40
2023-05-21T16:03:43.812Z,6.20
2023-05-21T16:06:20.314Z,5.90
2023-05-21T16:08:56.250Z,6.53
2023-05-21T16:11:32.260Z,6.60
2023-05-21T16:14:08.370Z,6.20
2023-05-21T16:16:45.144Z,5.87
2023-05-21T16:19:21.378Z,5.27
2023-05-21T16:21:57.847Z,4.97
2023-05-21T16:24:33.850Z,5.77
2023-05-21T16:27:09.921Z,5.77
2023-05-21T16:29:45.837Z,6.20
2023-05-21T16:32:22.183Z,5.90
2023-05-21T16:34:58.255Z,6.63
2023-05-21T16:37:34.452Z,6.40
2023-05-21T16:40:11.001Z,5.50
2023-05-21T16:42:46.894Z,5.80
2023-05-21T16:45:23.312Z,7.00
2023-05-21T16:48:00.776Z,7.23
2023-05-21T16:50:36.995Z,6.20
2023-05-21T16:53:14.007Z,5.50
2023-05-21T16:55:50.054Z,5.70
2023-05-21T16:58:26.002Z,6.70
2023-05-21T17:01:01.988Z,6.03
2023-05-21T17:03:40.964Z,6.50
2023-05-21T17:06:18.405Z,5.30
2023-05-21T17:08:56.016Z,7.30
2023-05-21T17:11:32.061Z,7.47
2023-05-21T17:14:07.944Z,7.07
2023-05-21T17:16:44.046Z,7.33
2023-05-21T17:19:19.984Z,6.60
2023-05-21T17:21:56.268Z,7.50
2023-05-21T17:24:32.206Z,7.40
2023-05-21T17:27:08.817Z,6.83
2023-05-21T17:29:44.767Z,7.20
2023-05-21T17:32:21.736Z,6.10
2023-05-21T17:34:58.730Z,6.40
2023-05-21T17:37:34.676Z,6.10
2023-05-21T17:40:12.249Z,6.73
2023-05-21T17:42:48.550Z,6.50
2023-05-21T17:45:24.454Z,5.73
2023-05-21T17:48:00.894Z,6.47
2023-05-21T17:50:36.978Z,6.30
2023-05-21T17:53:13.781Z,7.10
2023-05-21T17:55:49.748Z,6.23
2023-05-21T17:58:25.775Z,6.43
2023-05-21T18:01:02.633Z,7.10
2023-05-21T18:03:38.893Z,6.60
2023-05-21T18:06:15.778Z,6.20
2023-05-21T18:08:51.753Z,5.73
2023-05-21T18:11:27.687Z,6.37
2023-05-21T18:14:04.110Z,6.63
2023-05-21T18:16:40.953Z,6.70
2023-05-21T18:19:17.053Z,5.77
2023-05-21T18:21:52.982Z,6.80
2023-05-21T18:24:28.891Z,7.40
2023-05-21T18:27:05.061Z,7.20
2023-05-21T18:29:41.704Z,7.00
2023-05-21T18:32:17.907Z,8.00
2023-05-21T18:34:54.084Z,8.03
2023-05-21T18:37:29.990Z,7.13
2023-05-21T18:40:07.347Z,7.37
2023-05-21T18:42:43.886Z,8.90
2023-05-21T18:45:21.084Z,7.77
2023-05-21T18:47:59.486Z,7.43
2023-05-21T18:50:37.148Z,7.73
2023-05-21T18:53:13.291Z,8.07
2023-05-21T18:55:49.310Z,7.83
2023-05-21T18:58:25.326Z,8.07
2023-05-21T19:01:01.430Z,9.47
2023-05-21T19:03:38.970Z,8.93
2023-05-21T19:06:15.855Z,8.97
2023-05-21T19:08:52.917Z,9.07
2023-05-21T19:11:34.241Z,8.03
2023-05-21T19:14:12.016Z,8.80
2023-05-21T19:16:47.996Z,9.10
2023-05-21T19:19:23.957Z,8.43
2023-05-21T19:21:59.909Z,8.77
2023-05-21T19:24:35.792Z,9.50
2023-05-21T19:27:12.115Z,8.33
2023-05-21T19:29:49.757Z,8.77
2023-05-21T19:32:25.668Z,7.90
2023-05-21T19:35:04.500Z,9.27
2023-05-21T19:37:40.477Z,8.90
2023-05-21T19:40:17.647Z,7.77
2023-05-21T19:42:53.645Z,8.40
2023-05-21T19:45:29.623Z,8.47
2023-05-21T19:48:06.376Z,9.90
2023-05-21T19:50:42.848Z,9.90
2023-05-21T19:53:18.842Z,9.50
2023-05-21T19:55:55.217Z,9.63
2023-05-21T19:58:31.451Z,9.87
2023-05-21T20:01:07.753Z,10.43
2023-05-21T20:03:45.337Z,10.23
2023-05-21T20:06:21.358Z,10.23
2023-05-21T20:08:57.599Z,10.77
2023-05-21T20:11:34.598Z,10.70
2023-05-21T20:14:11.152Z,9.90
2023-05-21T20:16:48.359Z,10.30
2023-05-21T20:19:24.305Z,9.63
2023-05-21T20:22:00.410Z,10.10
2023-05-21T20:24:36.320Z,9.80
2023-05-21T20:27:12.266Z,10.23
2023-05-21T20:29:48.417Z,9.37
2023-05-21T20:32:24.337Z,9.50
2023-05-21T20:35:03.452Z,9.40
2023-05-21T20:37:39.905Z,10.83
2023-05-21T20:40:15.868Z,9.00
2023-05-21T20:42:53.485Z,9.93
2023-05-21T20:45:29.666Z,10.37
2023-05-21T20:48:09.736Z,8.77
2023-05-21T20:50:45.835Z,9.53
2023-05-21T20:53:21.867Z,9.77
2023-05-21T20:55:57.820Z,9.67
2023-05-21T20:58:33.724Z,9.93
2023-05-21T21:01:10.595Z,10.60
2023-05-21T21:03:47.171Z,9.40
2023-05-21T21:06:26.218Z,10.20
2023-05-21T21:09:02.097Z,10.97
2023-05-21T21:11:38.319Z,9.57
2023-05-21T21:14:14.486Z,11.10
2023-05-21T21:16:51.749Z,9.73
2023-05-21T21:19:27.879Z,11.40
2023-05-21T21:22:04.067Z,12.90
2023-05-21T21:24:39.990Z,11.30
2023-05-21T21:27:15.879Z,10.90
2023-05-21T21:29:51.781Z,11.83
2023-05-21T21:32:28.949Z,12.50
2023-05-21T21:35:05.889Z,11.33
2023-05-21T21:37:41.798Z,11.17
2023-05-21T21:40:17.894Z,10.97
2023-05-21T21:42:53.873Z,11.33
2023-05-21T21:45:29.755Z,11.03
2023-05-21T21:48:06.179Z,10.87
2023-05-21T21:50:42.132Z,12.00
2023-05-21T21:53:19.016Z,11.57
2023-05-21T21:55:55.874Z,12.60
2023-05-21T21:58:31.800Z,11.53
2023-05-21T22:01:07.844Z,12.30
2023-05-21T22:03:43.762Z,11.67
2023-05-21T22:06:19.726Z,12.57
2023-05-21T22:08:55.734Z,13.50
2023-05-21T22:11:31.676Z,12.20
2023-05-21T22:14:07.828Z,11.90
2023-05-21T22:16:43.845Z,13.37
2023-05-21T22:19:21.979Z,11.97
2023-05-21T22:21:59.862Z,13.90
2023-05-21T22:24:36.431Z,12.80
2023-05-21T22:27:12.351Z,13.30
2023-05-21T22:29:48.242Z,12.30
2023-05-21T22:32:24.148Z,12.10
2023-05-21T22:35:00.176Z,12.23
2023-05-21T22:37:37.364Z,11.70
2023-05-21T22:40:13.462Z,10.67
2023-05-21T22:42:49.406Z,11.17
2023-05-21T22:45:26.404Z,12.30
2023-05-21T22:48:07.002Z,12.00
2023-05-21T22:50:42.958Z,12.73
2023-05-21T22:53:19.021Z,11.53
2023-05-21T22:55:54.911Z,12.80
2023-05-21T22:58:31.054Z,12.90
2023-05-21T23:01:06.972Z,12.87
2023-05-21T23:03:42.872Z,12.60
2023-05-21T23:06:18.927Z,12.40
2023-05-21T23:08:54.801Z,13.43
2023-05-21T23:11:30.789Z,11.23
2023-05-21T23:14:06.696Z,12.13
2023-05-21T23:16:43.944Z,11.63
2023-05-21T23:19:20.092Z,13.23
2023-05-21T23:21:56.343Z,12.03
2023-05-21T23:24:35.027Z,12.53
2023-05-21T23:27:11.027Z,12.53
2023-05-21T23:29:46.929Z,11.67
2023-05-21T23:32:23.484Z,13.10
2023-05-21T23:34:59.611Z,13.30
2023-05-21T23:37:35.617Z,13.13
2023-05-21T23:40:12.452Z,13.70
2023-05-21T23:42:48.387Z,12.40
2023-05-21T23:45:24.316Z,13.90
2023-05-21T23:48:00.287Z,13.40
2023-05-21T23:50:36.600Z,13.23
2023-05-21T23:53:12.640Z,13.43
2023-05-21T23:55:48.587Z,13.50
2023-05-21T23:58:24.497Z,13.93
